Time;durP1;ratioP1;P1;durP2;ratioP2;P2;SDS_P1;SDS_P2;PMS_P1;PMS_P2;Temp;Humidity;BMP_temperature;BMP_pressure;BME280_temperature;BME280_humidity;BME280_pressure;Samples;Min_cycle;Max_cycle;Signal;HPM_P1;HPM_P2
2021/07/21 00:00:44;;;;;;;15.20;14.10;;;15.20;99.90;;;;;;5093644;28;20566;-66
2021/07/21 00:03:11;;;;;;;16.30;15.10;;;15.20;99.90;;;;;;5093622;28;20446;-66
2021/07/21 00:05:38;;;;;;;17.10;15.47;;;15.20;99.90;;;;;;5093564;28;20828;-66
2021/07/21 00:08:07;;;;;;;14.80;13.60;;;15.20;99.90;;;;;;5093769;28;20449;-66
2021/07/21 00:10:35;;;;;;;14.90;13.90;;;15.10;99.90;;;;;;5093773;28;20442;-66
2021/07/21 00:15:57;;;;;;;16.27;15.07;;;15.10;99.90;;;;;;5093544;28;20444;-66
2021/07/21 00:18:26;;;;;;;17.03;15.60;;;15.00;99.90;;;;;;5093582;28;20496;-66
2021/07/21 00:20:53;;;;;;;14.50;13.63;;;15.00;99.90;;;;;;5093348;28;20841;-66
2021/07/21 00:23:21;;;;;;;15.73;14.83;;;14.90;99.90;;;;;;5093331;28;20929;-66
2021/07/21 00:25:49;;;;;;;16.30;14.90;;;14.90;99.90;;;;;;5093164;28;20474;-66
2021/07/21 00:28:16;;;;;;;16.43;15.23;;;14.80;99.90;;;;;;5093285;28;20434;-66
2021/07/21 00:30:43;;;;;;;15.80;14.70;;;14.80;99.90;;;;;;5093292;28;20477;-65
2021/07/21 00:33:11;;;;;;;14.87;13.77;;;14.80;99.90;;;;;;5093003;28;20925;-66
2021/07/21 00:35:37;;;;;;;16.30;15.00;;;14.70;99.90;;;;;;5092960;28;20466;-66
2021/07/21 00:38:04;;;;;;;16.07;14.97;;;14.70;99.90;;;;;;5093139;28;20790;-66
2021/07/21 00:40:33;;;;;;;16.07;14.80;;;14.70;99.90;;;;;;5092960;28;20810;-66
2021/07/21 00:43:00;;;;;;;14.83;13.93;;;14.70;99.90;;;;;;5092838;28;20446;-66
2021/07/21 00:45:27;;;;;;;16.13;14.90;;;14.60;99.90;;;;;;5092945;28;20844;-66
2021/07/21 00:47:54;;;;;;;14.90;13.63;;;14.60;99.90;;;;;;5092965;28;20447;-66
2021/07/21 00:50:21;;;;;;;16.63;15.47;;;14.60;99.90;;;;;;5092886;28;20450;-66
2021/07/21 00:52:49;;;;;;;15.67;14.57;;;14.50;99.90;;;;;;5092584;28;20442;-66
2021/07/21 00:55:16;;;;;;;15.87;14.93;;;14.50;99.90;;;;;;5092759;28;20458;-66
2021/07/21 00:57:45;;;;;;;16.03;14.83;;;14.40;99.90;;;;;;5092733;28;20439;-66
2021/07/21 01:00:14;;;;;;;15.17;14.07;;;14.40;99.90;;;;;;5092695;28;21047;-66
2021/07/21 01:02:42;;;;;;;15.63;14.43;;;14.30;99.90;;;;;;5092322;28;20481;-66
2021/07/21 01:05:12;;;;;;;14.87;13.87;;;14.30;99.90;;;;;;5092577;28;20462;-65
2021/07/21 01:07:40;;;;;;;16.47;15.13;;;14.20;99.90;;;;;;5092854;28;20438;-65
2021/07/21 01:10:09;;;;;;;14.73;13.83;;;14.20;99.90;;;;;;5092627;28;20627;-66
2021/07/21 01:12:39;;;;;;;15.83;14.70;;;14.20;99.90;;;;;;5092118;28;20438;-66
2021/07/21 01:15:12;;;;;;;16.53;15.00;;;14.20;99.90;;;;;;5092387;28;20473;-66
2021/07/21 01:17:45;;;;;;;15.47;14.37;;;14.10;99.90;;;;;;5092384;28;20449;-66
2021/07/21 01:20:40;;;;;;;15.70;14.30;;;14.10;99.90;;;;;;5092326;28;20442;-66
2021/07/21 01:23:18;;;;;;;16.03;14.90;;;14.10;99.90;;;;;;5092178;28;20445;-65
2021/07/21 01:25:55;;;;;;;15.20;14.07;;;14.00;99.90;;;;;;5092097;28;20508;-66
2021/07/21 01:28:25;;;;;;;15.40;14.37;;;14.00;99.90;;;;;;5092230;28;20438;-66
2021/07/21 01:30:52;;;;;;;14.87;13.87;;;14.00;99.90;;;;;;5092058;28;20442;-66
2021/07/21 01:33:22;;;;;;;15.27;13.97;;;14.00;99.90;;;;;;5092074;28;20434;-67
2021/07/21 01:35:55;;;;;;;16.23;14.87;;;13.90;99.90;;;;;;5091979;28;20864;-65
2021/07/21 01:38:27;;;;;;;16.33;14.93;;;13.90;99.90;;;;;;5092211;28;20797;-65
2021/07/21 01:40:57;;;;;;;15.93;14.43;;;13.80;99.90;;;;;;5091806;28;20438;-67
2021/07/21 01:43:28;;;;;;;15.33;14.03;;;13.80;99.90;;;;;;5091851;28;20446;-65
2021/07/21 01:45:56;;;;;;;15.33;13.80;;;13.80;99.90;;;;;;5091873;28;20458;-65
2021/07/21 01:48:24;;;;;;;15.00;13.80;;;13.80;99.90;;;;;;5091539;28;20453;-66
2021/07/21 01:50:55;;;;;;;13.83;12.63;;;13.80;99.90;;;;;;5091817;28;20779;-66
2021/07/21 01:53:22;;;;;;;14.40;13.30;;;13.80;99.90;;;;;;5091823;28;20782;-66
2021/07/21 01:55:50;;;;;;;14.20;13.00;;;13.80;99.90;;;;;;5091678;28;20471;-67
2021/07/21 01:58:18;;;;;;;14.00;12.87;;;13.80;99.90;;;;;;5091643;28;20449;-66
2021/07/21 02:00:50;;;;;;;14.27;12.97;;;13.70;99.90;;;;;;5091767;28;20442;-66
2021/07/21 02:03:18;;;;;;;14.10;13.00;;;13.70;99.90;;;;;;5091499;28;20481;-66
2021/07/21 02:05:45;;;;;;;15.03;13.57;;;13.70;99.90;;;;;;5091748;28;20454;-66
2021/07/21 02:08:13;;;;;;;15.23;13.73;;;13.70;99.90;;;;;;5091513;28;20931;-65
2021/07/21 02:10:40;;;;;;;16.60;13.07;;;13.70;99.90;;;;;;5091753;28;20449;-66
2021/07/21 02:13:11;;;;;;;15.10;13.63;;;13.70;99.90;;;;;;5091335;28;20446;-65
2021/07/21 02:15:38;;;;;;;13.13;12.03;;;13.70;99.90;;;;;;5091527;28;20462;-66
2021/07/21 02:18:07;;;;;;;13.73;12.53;;;13.60;99.90;;;;;;5091592;28;20454;-66
2021/07/21 02:20:35;;;;;;;14.37;13.00;;;13.60;99.90;;;;;;5091498;28;20442;-65
2021/07/21 02:23:01;;;;;;;14.00;12.70;;;13.60;99.90;;;;;;5091222;28;20485;-65
2021/07/21 02:25:29;;;;;;;15.23;13.83;;;13.60;99.90;;;;;;5092863;28;21007;-66
2021/07/21 02:27:57;;;;;;;14.53;13.23;;;13.60;99.90;;;;;;5095105;28;20970;-66
2021/07/21 02:30:26;;;;;;;14.37;13.27;;;13.50;99.90;;;;;;5095378;28;20442;-68
2021/07/21 02:32:59;;;;;;;13.97;12.53;;;13.50;99.90;;;;;;5094347;28;20450;-68
2021/07/21 02:35:27;;;;;;;13.17;12.03;;;13.50;99.90;;;;;;5094670;28;20988;-67
2021/07/21 02:37:54;;;;;;;13.57;12.47;;;13.50;99.90;;;;;;5094928;28;20457;-67
2021/07/21 02:40:21;;;;;;;13.17;11.87;;;13.50;99.90;;;;;;5095083;28;20450;-67
2021/07/21 02:42:48;;;;;;;15.57;14.03;;;13.50;99.90;;;;;;5094189;28;20478;-67
2021/07/21 02:45:15;;;;;;;14.60;13.37;;;13.50;99.90;;;;;;5093615;28;20458;-68
2021/07/21 02:47:42;;;;;;;14.30;12.90;;;13.40;99.90;;;;;;5094440;28;20454;-67
2021/07/21 02:50:11;;;;;;;13.17;11.90;;;13.40;99.90;;;;;;5094774;28;20937;-67
2021/07/21 02:52:47;;;;;;;14.57;13.10;;;13.40;99.90;;;;;;5093467;28;20438;-67
2021/07/21 02:55:18;;;;;;;15.73;14.27;;;13.40;99.90;;;;;;5094092;28;20458;-67
2021/07/21 02:57:48;;;;;;;15.03;13.80;;;13.40;99.90;;;;;;5094017;28;20442;-67
2021/07/21 03:00:16;;;;;;;14.03;12.70;;;13.30;99.90;;;;;;5094476;28;20441;-67
2021/07/21 03:02:45;;;;;;;13.50;12.10;;;13.30;99.90;;;;;;5096873;28;20478;-67
2021/07/21 03:05:14;;;;;;;14.47;13.20;;;13.30;99.90;;;;;;5096893;28;20462;-67
2021/07/21 03:07:47;;;;;;;15.50;13.10;;;13.30;99.90;;;;;;5097097;28;20450;-67
2021/07/21 03:10:15;;;;;;;14.33;13.10;;;13.30;99.90;;;;;;5097189;28;20449;-67
2021/07/21 03:12:46;;;;;;;14.40;13.30;;;13.30;99.90;;;;;;5096770;28;20445;-67
2021/07/21 03:15:15;;;;;;;14.40;13.00;;;13.20;99.90;;;;;;5097311;28;20469;-67
2021/07/21 03:17:44;;;;;;;12.80;11.80;;;13.20;99.90;;;;;;5097290;28;20450;-66
2021/07/21 03:20:13;;;;;;;13.13;12.03;;;13.20;99.90;;;;;;5096949;28;20445;-66
2021/07/21 03:22:41;;;;;;;13.20;12.03;;;13.20;99.90;;;;;;5097243;28;21053;-68
2021/07/21 03:25:12;;;;;;;15.37;13.97;;;13.10;99.90;;;;;;5097936;28;20517;-67
2021/07/21 03:27:40;;;;;;;14.60;13.40;;;13.10;99.90;;;;;;5098086;28;20438;-68
2021/07/21 03:30:10;;;;;;;13.23;12.13;;;13.10;99.90;;;;;;5097958;28;20922;-67
2021/07/21 03:32:39;;;;;;;13.30;12.30;;;13.10;99.90;;;;;;5098010;28;20438;-67
2021/07/21 03:35:08;;;;;;;13.13;11.93;;;13.10;99.90;;;;;;5098359;28;20473;-67
2021/07/21 03:37:36;;;;;;;12.93;11.83;;;13.10;99.90;;;;;;5097673;28;20446;-67
2021/07/21 03:40:05;;;;;;;12.17;11.17;;;13.10;99.90;;;;;;5098240;28;20447;-68
2021/07/21 03:42:35;;;;;;;14.33;13.03;;;13.10;99.90;;;;;;5097383;28;20482;-67
2021/07/21 03:45:05;;;;;;;14.60;13.30;;;13.10;99.90;;;;;;5098164;28;20481;-68
2021/07/21 03:47:32;;;;;;;13.50;12.17;;;13.10;99.90;;;;;;5097341;28;20435;-67
2021/07/21 03:50:00;;;;;;;13.60;12.30;;;13.10;99.90;;;;;;5098043;28;20788;-67
2021/07/21 03:52:28;;;;;;;14.33;13.00;;;13.20;99.90;;;;;;5097280;28;20438;-67
2021/07/21 03:54:55;;;;;;;12.90;11.90;;;13.10;99.90;;;;;;5098382;28;20458;-67
2021/07/21 03:57:24;;;;;;;14.30;12.83;;;13.10;99.90;;;;;;5097714;28;20438;-67
2021/07/21 03:59:53;;;;;;;14.50;12.80;;;13.20;99.90;;;;;;5097762;28;20446;-67
2021/07/21 04:02:20;;;;;;;12.60;11.57;;;13.20;99.90;;;;;;5096921;28;20474;-67
2021/07/21 04:04:49;;;;;;;14.47;13.27;;;13.20;99.90;;;;;;5097150;28;20458;-67
2021/07/21 04:07:18;;;;;;;14.77;13.40;;;13.20;99.90;;;;;;5096082;28;20449;-66
2021/07/21 04:09:47;;;;;;;15.77;12.70;;;13.20;99.90;;;;;;5096046;28;20449;-67
2021/07/21 04:12:15;;;;;;;15.40;14.13;;;13.20;99.90;;;;;;5095710;28;20442;-67
2021/07/21 04:14:43;;;;;;;13.67;12.50;;;13.30;99.90;;;;;;5095934;28;20755;-67
2021/07/21 04:17:11;;;;;;;14.10;13.03;;;13.30;99.90;;;;;;5096115;28;20997;-67
2021/07/21 04:19:40;;;;;;;15.43;13.87;;;13.30;99.90;;;;;;5095572;28;20438;-66
2021/07/21 04:22:07;;;;;;;13.77;12.67;;;13.40;99.90;;;;;;5095300;28;20481;-67
2021/07/21 04:24:35;;;;;;;14.57;13.10;;;13.40;99.90;;;;;;5096086;28;20446;-66
2021/07/21 04:27:04;;;;;;;14.00;12.57;;;13.40;99.90;;;;;;5096113;28;20465;-66
2021/07/21 04:29:33;;;;;;;14.47;13.37;;;13.40;99.90;;;;;;5094810;28;20438;-67
2021/07/21 04:32:01;;;;;;;15.30;13.77;;;13.50;99.90;;;;;;5094709;28;20465;-67
2021/07/21 04:34:30;;;;;;;13.00;11.73;;;13.50;99.90;;;;;;5094357;28;20439;-67
2021/07/21 04:36:58;;;;;;;14.80;13.60;;;13.50;99.90;;;;;;5093830;28;20430;-67
2021/07/21 04:39:25;;;;;;;15.13;13.70;;;13.60;99.90;;;;;;5094015;28;20431;-67
2021/07/21 04:41:53;;;;;;;15.67;14.00;;;13.70;99.90;;;;;;5094291;28;20466;-67
2021/07/21 04:44:20;;;;;;;15.27;13.87;;;13.80;99.90;;;;;;5094941;28;20443;-67
2021/07/21 04:46:48;;;;;;;13.37;12.10;;;13.80;99.90;;;;;;5094466;28;20458;-66
2021/07/21 04:49:16;;;;;;;15.30;13.70;;;13.90;99.90;;;;;;5094994;28;20446;-67
2021/07/21 04:51:47;;;;;;;16.63;15.00;;;14.00;99.90;;;;;;5094474;28;20442;-67
2021/07/21 04:54:14;;;;;;;13.83;12.73;;;14.10;99.90;;;;;;5094856;28;20457;-67
2021/07/21 04:56:41;;;;;;;13.50;12.40;;;14.20;99.90;;;;;;5094857;28;20457;-67
2021/07/21 04:59:08;;;;;;;14.87;13.57;;;14.30;99.90;;;;;;5095380;28;20454;-66
2021/07/21 05:01:35;;;;;;;15.37;14.07;;;14.40;99.90;;;;;;5094999;28;20790;-66
2021/07/21 05:04:03;;;;;;;15.30;13.80;;;14.40;99.90;;;;;;5093459;28;20503;-67
2021/07/21 05:06:31;;;;;;;14.93;12.73;;;14.50;99.90;;;;;;5092510;28;20493;-66
2021/07/21 05:08:59;;;;;;;14.83;13.40;;;14.60;99.90;;;;;;5092512;28;20783;-67
2021/07/21 05:11:26;;;;;;;15.50;13.90;;;14.70;99.90;;;;;;5092442;28;20438;-67
2021/07/21 05:13:53;;;;;;;14.37;13.33;;;14.80;99.90;;;;;;5092250;28;20434;-67
2021/07/21 05:16:20;;;;;;;15.67;14.43;;;14.80;99.90;;;;;;5092643;28;20485;-67
2021/07/21 05:18:47;;;;;;;16.20;14.90;;;14.90;99.90;;;;;;5092997;28;20470;-66
2021/07/21 05:21:14;;;;;;;17.70;16.33;;;15.00;99.90;;;;;;5093580;28;20446;-67
2021/07/21 05:23:41;;;;;;;19.03;14.00;;;15.10;99.90;;;;;;5094559;28;20659;-67
2021/07/21 05:26:09;;;;;;;15.70;14.60;;;15.20;99.90;;;;;;5094926;28;20482;-67
2021/07/21 05:28:37;;;;;;;16.03;14.60;;;15.30;99.90;;;;;;5093112;28;20442;-67
2021/07/21 05:31:04;;;;;;;16.70;15.40;;;15.40;99.90;;;;;;5092054;28;20850;-66
2021/07/21 05:33:32;;;;;;;16.63;15.23;;;15.50;99.90;;;;;;5092042;28;20438;-66
2021/07/21 05:35:59;;;;;;;15.80;14.50;;;15.60;99.90;;;;;;5093430;28;20501;-67
2021/07/21 05:38:26;;;;;;;16.63;15.37;;;15.70;99.90;;;;;;5093781;28;20442;-67
2021/07/21 05:40:52;;;;;;;16.87;15.13;;;15.80;99.90;;;;;;5092705;28;20442;-67
2021/07/21 05:43:21;;;;;;;16.40;14.87;;;16.00;99.90;;;;;;5092916;28;20503;-67
2021/07/21 05:45:48;;;;;;;15.97;14.93;;;16.00;99.90;;;;;;5093031;28;20473;-66
2021/07/21 05:48:15;;;;;;;16.87;15.67;;;16.10;99.90;;;;;;5093510;28;20453;-66
2021/07/21 05:50:41;;;;;;;15.87;14.77;;;16.30;99.90;;;;;;5093782;28;20515;-67
2021/07/21 05:53:09;;;;;;;16.20;15.20;;;16.40;99.90;;;;;;5093388;28;20936;-67
2021/07/21 05:55:36;;;;;;;17.27;16.17;;;16.50;99.90;;;;;;5094468;28;20733;-67
2021/07/21 05:58:03;;;;;;;16.47;15.13;;;16.60;99.90;;;;;;5093977;28;20447;-67
2021/07/21 06:00:31;;;;;;;18.80;17.60;;;16.70;99.90;;;;;;5093578;28;20488;-67
2021/07/21 06:02:58;;;;;;;17.90;16.80;;;16.80;99.90;;;;;;5093149;28;20826;-67
2021/07/21 06:05:24;;;;;;;18.27;16.97;;;17.00;99.90;;;;;;5092706;28;20462;-67
2021/07/21 06:07:51;;;;;;;19.17;17.87;;;17.10;99.90;;;;;;5092792;28;20848;-68
2021/07/21 06:10:18;;;;;;;18.70;17.70;;;17.20;99.90;;;;;;5093823;28;20930;-67
2021/07/21 06:12:44;;;;;;;19.27;17.63;;;17.30;99.90;;;;;;5094450;28;20446;-67
2021/07/21 06:15:11;;;;;;;18.93;17.83;;;17.50;99.90;;;;;;5093386;28;20464;-65
2021/07/21 06:17:39;;;;;;;20.93;19.40;;;17.60;99.90;;;;;;5093524;28;20454;-67
2021/07/21 06:20:08;;;;;;;19.03;17.70;;;17.70;99.90;;;;;;5093341;28;20933;-67
2021/07/21 06:22:38;;;;;;;19.70;18.40;;;17.80;99.90;;;;;;5092587;28;20827;-67
2021/07/21 06:25:08;;;;;;;19.03;18.03;;;17.90;99.90;;;;;;5094664;28;20815;-67
2021/07/21 06:27:34;;;;;;;19.23;18.23;;;18.00;99.90;;;;;;5096150;28;20443;-67
2021/07/21 06:30:06;;;;;;;18.97;17.70;;;18.20;99.90;;;;;;5096019;28;20447;-67
2021/07/21 06:32:34;;;;;;;19.60;18.20;;;18.30;99.90;;;;;;5094642;28;20452;-67
2021/07/21 06:35:02;;;;;;;19.87;18.43;;;18.40;99.90;;;;;;5096467;28;20871;-67
2021/07/21 06:37:29;;;;;;;18.67;17.40;;;18.50;99.90;;;;;;5097688;28;20442;-66
2021/07/21 06:39:55;;;;;;;19.40;18.13;;;18.60;99.90;;;;;;5098920;28;20446;-66
2021/07/21 06:42:22;;;;;;;18.97;17.80;;;18.70;99.90;;;;;;5098941;28;20445;-67
2021/07/21 06:44:49;;;;;;;18.43;17.33;;;18.80;99.90;;;;;;5098578;28;20463;-66
2021/07/21 06:47:15;;;;;;;18.73;17.53;;;18.90;99.90;;;;;;5099533;28;20438;-67
2021/07/21 06:49:42;;;;;;;17.83;16.83;;;19.00;99.90;;;;;;5099173;28;20453;-67
2021/07/21 06:52:10;;;;;;;19.83;18.63;;;19.20;99.90;;;;;;5099367;28;20465;-66
2021/07/21 06:54:37;;;;;;;18.90;17.67;;;19.30;99.90;;;;;;5098511;28;20435;-66
2021/07/21 06:57:04;;;;;;;18.40;17.40;;;19.40;99.90;;;;;;5099556;28;20441;-67
2021/07/21 06:59:32;;;;;;;21.10;19.30;;;19.40;99.90;;;;;;5099831;28;20568;-67
2021/07/21 07:01:59;;;;;;;18.30;17.17;;;19.50;99.90;;;;;;5099632;28;20462;-67
2021/07/21 07:04:26;;;;;;;17.90;16.80;;;19.60;99.90;;;;;;5099071;28;20481;-67
2021/07/21 07:06:52;;;;;;;16.83;15.77;;;19.70;99.90;;;;;;5099487;28;20817;-67
2021/07/21 07:09:20;;;;;;;17.37;16.33;;;19.80;99.90;;;;;;5097839;28;20442;-67
2021/07/21 07:11:47;;;;;;;17.80;16.83;;;19.90;99.90;;;;;;5098003;28;20449;-67
2021/07/21 07:14:14;;;;;;;17.60;16.60;;;20.00;99.90;;;;;;5099028;28;20449;-66
2021/07/21 07:16:41;;;;;;;19.70;18.27;;;20.10;99.90;;;;;;5099976;28;20802;-66
2021/07/21 07:19:08;;;;;;;19.27;17.80;;;20.10;99.90;;;;;;5100258;28;20895;-67
2021/07/21 07:21:34;;;;;;;18.27;17.07;;;20.20;99.90;;;;;;5100219;28;20465;-66
2021/07/21 07:24:01;;;;;;;18.17;17.27;;;20.20;99.90;;;;;;5098810;28;20485;-67
2021/07/21 07:26:29;;;;;;;18.70;17.60;;;20.30;99.90;;;;;;5097526;28;20525;-67
2021/07/21 07:28:56;;;;;;;18.27;16.97;;;20.30;99.90;;;;;;5098045;28;20446;-67
2021/07/21 07:31:24;;;;;;;17.67;16.90;;;20.50;99.90;;;;;;5098837;28;20504;-66
2021/07/21 07:33:52;;;;;;;18.10;17.20;;;20.50;99.90;;;;;;5099361;28;20439;-68
2021/07/21 07:36:19;;;;;;;18.37;17.43;;;20.60;99.90;;;;;;5100285;28;20466;-67
2021/07/21 07:38:45;;;;;;;18.47;17.63;;;20.60;99.90;;;;;;5100598;28;20925;-67
2021/07/21 07:41:12;;;;;;;18.80;17.77;;;20.70;99.50;;;;;;5099573;28;20449;-67
2021/07/21 07:43:40;;;;;;;18.43;17.53;;;20.80;99.50;;;;;;5099149;28;20481;-67
2021/07/21 07:46:08;;;;;;;18.90;17.90;;;20.90;99.00;;;;;;5098805;28;20466;-66
2021/07/21 07:48:35;;;;;;;18.63;17.73;;;21.00;97.30;;;;;;5098835;28;20446;-67
2021/07/21 07:51:02;;;;;;;17.20;16.50;;;21.10;97.10;;;;;;5099710;28;20438;-68
2021/07/21 07:53:29;;;;;;;18.70;17.70;;;21.10;97.00;;;;;;5100531;28;20760;-67
2021/07/21 07:55:57;;;;;;;18.57;17.67;;;21.10;97.20;;;;;;5099953;28;20463;-67
2021/07/21 07:58:24;;;;;;;17.80;17.00;;;21.30;97.40;;;;;;5098963;28;20863;-67
2021/07/21 08:00:54;;;;;;;20.20;19.10;;;21.30;95.90;;;;;;5097273;28;20442;-67
2021/07/21 08:03:21;;;;;;;19.97;19.00;;;21.40;95.50;;;;;;5098081;28;20504;-66
2021/07/21 08:05:50;;;;;;;20.00;19.10;;;21.50;95.10;;;;;;5098889;28;20475;-67
2021/07/21 08:08:17;;;;;;;21.47;20.27;;;21.60;94.60;;;;;;5099247;28;20446;-67
2021/07/21 08:10:44;;;;;;;20.60;19.07;;;21.70;94.40;;;;;;5100315;28;20442;-67
2021/07/21 08:13:11;;;;;;;20.60;19.50;;;21.80;94.80;;;;;;5100188;28;20443;-67
2021/07/21 08:15:37;;;;;;;21.43;20.43;;;21.80;94.60;;;;;;5098349;28;20527;-67
2021/07/21 08:18:06;;;;;;;20.73;19.83;;;21.90;94.00;;;;;;5097886;28;20442;-67
2021/07/21 08:20:33;;;;;;;21.50;20.17;;;22.00;93.70;;;;;;5098407;28;20450;-66
2021/07/21 08:22:59;;;;;;;21.53;20.27;;;22.00;92.80;;;;;;5098151;28;20438;-67
2021/07/21 08:25:27;;;;;;;20.70;19.60;;;22.10;93.90;;;;;;5098829;28;20485;-67
2021/07/21 08:27:54;;;;;;;20.70;19.60;;;22.10;91.70;;;;;;5098933;28;20481;-67
2021/07/21 08:30:21;;;;;;;21.13;20.00;;;22.30;91.80;;;;;;5098990;28;20550;-67
2021/07/21 08:32:50;;;;;;;20.63;19.63;;;22.20;88.30;;;;;;5098171;28;20446;-67
2021/07/21 08:35:20;;;;;;;22.33;20.93;;;22.20;90.00;;;;;;5098361;28;20469;-66
2021/07/21 08:37:47;;;;;;;19.57;18.77;;;22.10;89.20;;;;;;5098697;28;21018;-67
2021/07/21 08:40:15;;;;;;;20.20;19.30;;;22.20;89.90;;;;;;5098760;28;20448;-66
2021/07/21 08:42:42;;;;;;;20.97;19.77;;;22.40;90.30;;;;;;5100048;28;20457;-66
2021/07/21 08:45:10;;;;;;;19.77;18.80;;;22.60;88.40;;;;;;5098688;28;20486;-67
2021/07/21 08:47:37;;;;;;;22.17;20.97;;;22.90;84.50;;;;;;5099201;28;20925;-67
2021/07/21 08:50:05;;;;;;;21.03;20.03;;;23.10;82.80;;;;;;5098979;28;20446;-66
2021/07/21 08:52:34;;;;;;;20.63;19.63;;;23.30;80.10;;;;;;5098559;28;20493;-68
2021/07/21 08:55:02;;;;;;;21.70;20.60;;;23.30;77.00;;;;;;5098846;28;20459;-67
2021/07/21 08:57:30;;;;;;;21.10;19.73;;;23.30;75.60;;;;;;5099474;28;20934;-67
2021/07/21 08:59:59;;;;;;;21.37;20.30;;;23.20;73.60;;;;;;5099002;28;20439;-67
2021/07/21 09:02:26;;;;;;;23.30;22.00;;;23.30;73.60;;;;;;5097922;28;20536;-67
2021/07/21 09:04:54;;;;;;;22.07;20.57;;;23.50;75.70;;;;;;5098313;28;20493;-67
2021/07/21 09:07:21;;;;;;;21.53;20.43;;;23.80;72.00;;;;;;5098453;28;20445;-67
2021/07/21 09:09:49;;;;;;;22.27;21.27;;;24.00;72.00;;;;;;5097434;28;20446;-68
2021/07/21 09:12:17;;;;;;;21.60;20.50;;;24.20;70.10;;;;;;5096624;28;20502;-67
2021/07/21 09:14:44;;;;;;;21.10;20.00;;;24.40;67.50;;;;;;5095878;28;20478;-67
2021/07/21 09:17:13;;;;;;;21.77;20.77;;;24.60;68.70;;;;;;5097174;28;20667;-68
2021/07/21 09:19:41;;;;;;;21.87;20.77;;;24.70;65.80;;;;;;5096031;28;20450;-66
2021/07/21 09:22:19;;;;;;;20.00;19.10;;;25.00;64.20;;;;;;5096754;28;20442;-67
2021/07/21 09:25:08;;;;;;;21.90;20.90;;;25.20;62.80;;;;;;5095830;28;20486;-67
2021/07/21 09:27:35;;;;;;;22.20;21.10;;;25.30;61.40;;;;;;5097437;28;20446;-67
2021/07/21 09:30:02;;;;;;;22.33;21.13;;;25.50;62.50;;;;;;5098179;28;20445;-68
2021/07/21 09:32:28;;;;;;;22.07;20.97;;;25.50;60.90;;;;;;5098832;28;20445;-67
2021/07/21 09:34:55;;;;;;;21.63;20.50;;;25.60;57.90;;;;;;5098551;28;20466;-67
2021/07/21 09:37:23;;;;;;;22.40;21.40;;;25.80;59.00;;;;;;5098415;28;20442;-68
2021/07/21 09:39:52;;;;;;;26.50;24.53;;;26.10;59.10;;;;;;5096779;28;20760;-68
2021/07/21 09:42:29;;;;;;;23.27;22.03;;;26.00;57.10;;;;;;5094668;28;20447;-68
2021/07/21 09:44:56;;;;;;;22.90;21.80;;;26.10;56.40;;;;;;5095511;28;20485;-68
2021/07/21 09:47:24;;;;;;;22.63;21.53;;;26.20;55.90;;;;;;5096076;28;20438;-67
2021/07/21 09:50:10;;;;;;;22.30;21.20;;;26.20;56.70;;;;;;5095922;28;20450;-67
2021/07/21 09:52:46;;;;;;;23.20;22.00;;;26.20;56.70;;;;;;5095279;28;20442;-67
2021/07/21 09:55:16;;;;;;;22.60;21.40;;;26.30;55.70;;;;;;5094152;28;20520;-67
2021/07/21 09:57:44;;;;;;;22.20;21.10;;;26.40;56.10;;;;;;5094682;28;20447;-67
2021/07/21 10:00:22;;;;;;;21.70;20.60;;;26.30;56.20;;;;;;5095606;28;20442;-67
2021/07/21 10:02:50;;;;;;;23.03;22.03;;;26.20;55.90;;;;;;5095803;28;20445;-68
2021/07/21 10:05:16;;;;;;;22.63;21.53;;;26.20;57.00;;;;;;5095138;28;20486;-68
2021/07/21 10:07:49;;;;;;;21.00;20.00;;;26.40;55.80;;;;;;5095178;28;20648;-69
2021/07/21 10:10:19;;;;;;;23.60;22.50;;;26.40;55.50;;;;;;5094409;28;20442;-67
2021/07/21 10:12:58;;;;;;;23.87;22.77;;;26.60;54.60;;;;;;5094163;28;20446;-67
2021/07/21 10:15:25;;;;;;;23.10;22.00;;;27.00;53.10;;;;;;5093701;28;20458;-67
2021/07/21 10:18:05;;;;;;;22.70;21.57;;;27.10;53.90;;;;;;5093821;28;20785;-67
2021/07/21 10:20:32;;;;;;;22.90;21.70;;;27.60;51.60;;;;;;5093585;28;20544;-68
2021/07/21 10:22:58;;;;;;;23.20;22.20;;;28.20;50.60;;;;;;5093018;28;20442;-68
2021/07/21 10:25:27;;;;;;;24.83;23.70;;;28.30;50.00;;;;;;5092457;28;20579;-67
2021/07/21 10:27:54;;;;;;;22.40;21.10;;;28.60;49.90;;;;;;5093060;28;20442;-68
2021/07/21 10:30:21;;;;;;;22.23;21.13;;;28.80;49.70;;;;;;5092835;28;20949;-67
2021/07/21 10:32:49;;;;;;;22.17;21.07;;;28.80;49.10;;;;;;5092609;28;20449;-68
2021/07/21 10:35:16;;;;;;;23.50;22.20;;;29.00;49.10;;;;;;5093085;28;20463;-68
2021/07/21 10:37:43;;;;;;;24.20;22.93;;;28.90;46.90;;;;;;5093106;28;20439;-68
2021/07/21 10:40:11;;;;;;;26.57;25.27;;;29.00;46.50;;;;;;5093499;28;20445;-68
2021/07/21 10:42:39;;;;;;;23.53;22.43;;;29.10;47.30;;;;;;5093506;28;20946;-68
2021/07/21 10:45:17;;;;;;;25.30;24.20;;;29.30;47.70;;;;;;5093619;28;20489;-68
2021/07/21 10:47:45;;;;;;;25.20;24.00;;;30.00;45.80;;;;;;5095145;28;20832;-68
2021/07/21 10:50:33;;;;;;;24.80;23.33;;;30.70;44.50;;;;;;5095966;28;20477;-68
2021/07/21 10:53:42;;;;;;;24.83;23.27;;;30.90;44.70;;;;;;5097167;28;20445;-68
2021/07/21 10:59:18;;;;;;;23.90;22.73;;;31.10;44.60;;;;;;5097546;28;20916;-69
2021/07/21 11:01:46;;;;;;;23.80;22.60;;;31.00;42.60;;;;;;5097308;28;20487;-68
2021/07/21 11:04:13;;;;;;;23.93;22.83;;;30.90;43.30;;;;;;5097805;28;20470;-68
2021/07/21 11:06:41;;;;;;;25.10;23.90;;;30.80;42.60;;;;;;5097789;28;20472;-69
2021/07/21 11:09:22;;;;;;;24.50;23.27;;;31.20;42.90;;;;;;5098294;28;20456;-68
2021/07/21 11:11:52;;;;;;;24.77;23.60;;;30.80;43.10;;;;;;5097614;28;20446;-67
2021/07/21 11:14:22;;;;;;;23.60;22.50;;;30.50;43.20;;;;;;5097367;28;20454;-68
2021/07/21 11:16:51;;;;;;;25.47;24.20;;;30.30;44.20;;;;;;5097764;28;20523;-67
2021/07/21 11:19:45;;;;;;;23.57;22.40;;;30.60;43.60;;;;;;5097353;28;20449;-68
2021/07/21 11:22:24;;;;;;;26.07;24.87;;;30.60;42.80;;;;;;5086125;28;20445;-68
2021/07/21 11:25:15;;;;;;;23.13;22.13;;;30.70;44.10;;;;;;5101459;28;20988;-68
2021/07/21 11:27:48;;;;;;;27.23;25.83;;;30.20;43.70;;;;;;5101237;28;20467;-67
2021/07/21 11:30:44;;;;;;;24.90;23.70;;;30.00;42.60;;;;;;5100471;28;20473;-68
2021/07/21 11:33:46;;;;;;;23.40;22.20;;;30.00;43.40;;;;;;5100285;28;20666;-67
2021/07/21 11:36:33;;;;;;;25.10;23.90;;;30.30;41.90;;;;;;5101985;28;20954;-67
2021/07/21 11:39:00;;;;;;;25.17;23.93;;;30.50;41.60;;;;;;5106594;28;20452;-67
2021/07/21 11:41:49;;;;;;;23.93;22.63;;;31.30;41.00;;;;;;5108632;28;20812;-68
2021/07/21 11:44:24;;;;;;;23.87;22.77;;;32.10;40.60;;;;;;5108360;28;20488;-66
2021/07/21 11:46:52;;;;;;;24.70;23.60;;;31.70;40.30;;;;;;5105878;28;20456;-67
2021/07/21 11:49:20;;;;;;;24.87;23.60;;;32.20;40.20;;;;;;5101252;28;20437;-67
2021/07/21 11:51:52;;;;;;;24.00;22.90;;;32.60;40.30;;;;;;5093977;28;20484;-66
2021/07/21 11:54:24;;;;;;;25.00;23.50;;;33.20;38.80;;;;;;5094030;28;20441;-67
2021/07/21 11:56:51;;;;;;;25.83;24.50;;;33.40;38.70;;;;;;5093946;28;20469;-66
2021/07/21 11:59:27;;;;;;;25.33;23.93;;;33.60;37.50;;;;;;5093968;28;20441;-67
2021/07/21 12:02:10;;;;;;;24.17;23.07;;;33.10;38.20;;;;;;5093724;28;20473;-67
2021/07/21 12:04:38;;;;;;;23.63;22.57;;;33.20;36.90;;;;;;5093557;28;20490;-67
2021/07/21 12:07:06;;;;;;;26.20;25.00;;;33.40;37.70;;;;;;5093832;28;20528;-67
2021/07/21 12:09:36;;;;;;;24.30;23.20;;;33.20;38.00;;;;;;5093821;28;20445;-67
2021/07/21 12:12:06;;;;;;;24.37;22.97;;;32.90;37.70;;;;;;5093543;28;20809;-67
2021/07/21 12:14:34;;;;;;;25.33;24.13;;;32.90;38.10;;;;;;5093456;28;20959;-67
2021/07/21 12:17:07;;;;;;;24.13;23.03;;;33.20;36.30;;;;;;5093715;28;20445;-66
2021/07/21 12:19:36;;;;;;;25.73;24.50;;;32.60;35.90;;;;;;5093664;28;20506;-67
2021/07/21 12:22:06;;;;;;;25.27;23.90;;;33.10;36.10;;;;;;5093375;28;20437;-66
2021/07/21 12:24:35;;;;;;;24.80;23.30;;;33.40;37.20;;;;;;5093120;28;20477;-65
2021/07/21 12:27:01;;;;;;;24.13;22.73;;;33.50;36.50;;;;;;5093362;28;20442;-66
2021/07/21 12:29:29;;;;;;;22.90;21.90;;;33.20;37.10;;;;;;5093270;28;20449;-65
2021/07/21 12:32:08;;;;;;;24.37;22.97;;;33.60;36.50;;;;;;5092644;28;20808;-65
2021/07/21 12:34:36;;;;;;;24.40;23.20;;;33.50;36.80;;;;;;5092913;28;20789;-66
2021/07/21 12:37:06;;;;;;;24.60;23.13;;;33.10;36.70;;;;;;5093347;28;20446;-65
2021/07/21 12:39:33;;;;;;;23.90;22.63;;;33.40;37.50;;;;;;5093147;28;20810;-65
2021/07/21 12:42:08;;;;;;;24.27;23.20;;;33.50;37.70;;;;;;5092848;28;20453;-66
2021/07/21 12:44:40;;;;;;;25.43;24.03;;;34.20;36.50;;;;;;5092862;28;20500;-66